sensor_id;sensor_type;location;lat;lon;timestamp;temperature;humidity
18613;DHT22;9436;52.152;21.032;2022-10-18T00:00:13;14.10;99.90
18613;DHT22;9436;52.152;21.032;2022-10-18T00:02:40;14.00;99.90
18613;DHT22;9436;52.152;21.032;2022-10-18T00:05:07;14.00;99.90
18613;DHT22;9436;52.152;21.032;2022-10-18T00:07:34;14.00;99.90
18613;DHT22;9436;52.152;21.032;2022-10-18T00:10:02;13.90;99.90
18613;DHT22;9436;52.152;21.032;2022-10-18T00:12:32;13.90;99.90
18613;DHT22;9436;52.152;21.032;2022-10-18T00:14:59;13.90;99.90
18613;DHT22;9436;52.152;21.032;2022-10-18T00:17:27;13.90;99.90
18613;DHT22;9436;52.152;21.032;2022-10-18T00:19:54;13.80;99.90
18613;DHT22;9436;52.152;21.032;2022-10-18T00:22:21;13.90;99.90
18613;DHT22;9436;52.152;21.032;2022-10-18T00:24:50;13.90;99.90
18613;DHT22;9436;52.152;21.032;2022-10-18T00:27:17;13.80;99.90
18613;DHT22;9436;52.152;21.032;2022-10-18T00:29:50;13.80;99.90
18613;DHT22;9436;52.152;21.032;2022-10-18T00:32:17;13.70;99.90
18613;DHT22;9436;52.152;21.032;2022-10-18T00:34:44;13.70;99.90
18613;DHT22;9436;52.152;21.032;2022-10-18T00:37:11;13.70;99.90
18613;DHT22;9436;52.152;21.032;2022-10-18T00:39:38;13.70;99.90
18613;DHT22;9436;52.152;21.032;2022-10-18T00:42:06;13.70;99.90
18613;DHT22;9436;52.152;21.032;2022-10-18T00:47:47;13.70;99.90
18613;DHT22;9436;52.152;21.032;2022-10-18T00:50:16;13.70;99.90
18613;DHT22;9436;52.152;21.032;2022-10-18T00:52:47;13.70;99.90
18613;DHT22;9436;52.152;21.032;2022-10-18T00:55:15;13.60;99.90
18613;DHT22;9436;52.152;21.032;2022-10-18T00:57:43;13.60;99.90
18613;DHT22;9436;52.152;21.032;2022-10-18T01:00:12;13.60;99.90
18613;DHT22;9436;52.152;21.032;2022-10-18T01:02:41;13.60;99.90
18613;DHT22;9436;52.152;21.032;2022-10-18T01:05:11;13.60;99.90
18613;DHT22;9436;52.152;21.032;2022-10-18T01:10:44;13.60;99.90
18613;DHT22;9436;52.152;21.032;2022-10-18T01:13:27;13.50;99.90
18613;DHT22;9436;52.152;21.032;2022-10-18T01:15:59;13.50;99.90
18613;DHT22;9436;52.152;21.032;2022-10-18T01:18:34;13.50;99.90
18613;DHT22;9436;52.152;21.032;2022-10-18T01:21:24;13.50;99.90
18613;DHT22;9436;52.152;21.032;2022-10-18T01:24:18;13.50;99.90
18613;DHT22;9436;52.152;21.032;2022-10-18T01:32:52;13.50;99.90
18613;DHT22;9436;52.152;21.032;2022-10-18T01:35:24;13.50;99.90
18613;DHT22;9436;52.152;21.032;2022-10-18T01:37:55;13.50;99.90
18613;DHT22;9436;52.152;21.032;2022-10-18T01:40:23;13.40;99.90
18613;DHT22;9436;52.152;21.032;2022-10-18T01:42:51;13.40;99.90
18613;DHT22;9436;52.152;21.032;2022-10-18T01:45:19;13.40;99.90
18613;DHT22;9436;52.152;21.032;2022-10-18T01:47:47;13.40;99.90
18613;DHT22;9436;52.152;21.032;2022-10-18T01:50:27;13.40;99.90
18613;DHT22;9436;52.152;21.032;2022-10-18T01:52:54;13.40;99.90
18613;DHT22;9436;52.152;21.032;2022-10-18T01:55:26;13.40;99.90
18613;DHT22;9436;52.152;21.032;2022-10-18T01:58:02;13.40;99.90
18613;DHT22;9436;52.152;21.032;2022-10-18T02:00:34;13.30;99.90
18613;DHT22;9436;52.152;21.032;2022-10-18T02:03:08;13.30;99.90
18613;DHT22;9436;52.152;21.032;2022-10-18T02:05:45;13.30;99.90
18613;DHT22;9436;52.152;21.032;2022-10-18T02:08:16;13.30;99.90
18613;DHT22;9436;52.152;21.032;2022-10-18T02:10:47;13.20;99.90
18613;DHT22;9436;52.152;21.032;2022-10-18T02:13:18;13.20;99.90
18613;DHT22;9436;52.152;21.032;2022-10-18T02:15:48;13.20;99.90
18613;DHT22;9436;52.152;21.032;2022-10-18T02:18:19;13.10;99.90
18613;DHT22;9436;52.152;21.032;2022-10-18T02:20:50;13.10;99.90
18613;DHT22;9436;52.152;21.032;2022-10-18T02:23:21;13.10;99.90
18613;DHT22;9436;52.152;21.032;2022-10-18T02:25:50;13.10;99.90
18613;DHT22;9436;52.152;21.032;2022-10-18T02:28:18;13.00;99.90
18613;DHT22;9436;52.152;21.032;2022-10-18T02:30:50;13.00;99.90
18613;DHT22;9436;52.152;21.032;2022-10-18T02:33:26;13.00;99.90
18613;DHT22;9436;52.152;21.032;2022-10-18T02:36:00;13.00;99.90
18613;DHT22;9436;52.152;21.032;2022-10-18T02:38:30;12.90;99.90
18613;DHT22;9436;52.152;21.032;2022-10-18T02:40:58;13.00;99.90
18613;DHT22;9436;52.152;21.032;2022-10-18T02:43:25;13.00;99.90
18613;DHT22;9436;52.152;21.032;2022-10-18T02:45:52;13.00;99.90
18613;DHT22;9436;52.152;21.032;2022-10-18T02:48:20;13.00;99.90
18613;DHT22;9436;52.152;21.032;2022-10-18T02:50:47;13.00;99.90
18613;DHT22;9436;52.152;21.032;2022-10-18T02:53:15;13.00;99.90
18613;DHT22;9436;52.152;21.032;2022-10-18T02:55:42;13.00;99.90
18613;DHT22;9436;52.152;21.032;2022-10-18T02:58:09;13.00;99.90
18613;DHT22;9436;52.152;21.032;2022-10-18T03:00:36;13.00;99.90
18613;DHT22;9436;52.152;21.032;2022-10-18T03:03:03;13.00;99.90
18613;DHT22;9436;52.152;21.032;2022-10-18T03:05:30;13.00;99.90
18613;DHT22;9436;52.152;21.032;2022-10-18T03:07:57;13.00;99.90
18613;DHT22;9436;52.152;21.032;2022-10-18T03:10:25;13.00;99.90
18613;DHT22;9436;52.152;21.032;2022-10-18T03:12:52;13.00;99.90
18613;DHT22;9436;52.152;21.032;2022-10-18T03:15:19;13.00;99.90
18613;DHT22;9436;52.152;21.032;2022-10-18T03:17:46;13.00;99.90
18613;DHT22;9436;52.152;21.032;2022-10-18T03:20:13;13.00;99.90
18613;DHT22;9436;52.152;21.032;2022-10-18T03:22:40;13.00;99.90
18613;DHT22;9436;52.152;21.032;2022-10-18T03:25:07;12.90;99.90
18613;DHT22;9436;52.152;21.032;2022-10-18T03:27:36;12.90;99.90
18613;DHT22;9436;52.152;21.032;2022-10-18T03:30:03;12.90;99.90
18613;DHT22;9436;52.152;21.032;2022-10-18T03:32:30;12.90;99.90
18613;DHT22;9436;52.152;21.032;2022-10-18T03:34:57;12.90;99.90
18613;DHT22;9436;52.152;21.032;2022-10-18T03:37:24;12.90;99.90
18613;DHT22;9436;52.152;21.032;2022-10-18T03:39:51;12.90;99.90
18613;DHT22;9436;52.152;21.032;2022-10-18T03:42:18;12.90;99.90
18613;DHT22;9436;52.152;21.032;2022-10-18T03:44:46;12.80;99.90
18613;DHT22;9436;52.152;21.032;2022-10-18T03:47:13;12.80;99.90
18613;DHT22;9436;52.152;21.032;2022-10-18T03:49:40;12.80;99.90
18613;DHT22;9436;52.152;21.032;2022-10-18T03:52:07;12.80;99.90
18613;DHT22;9436;52.152;21.032;2022-10-18T03:54:34;12.80;99.90
18613;DHT22;9436;52.152;21.032;2022-10-18T03:57:01;12.70;99.90
18613;DHT22;9436;52.152;21.032;2022-10-18T03:59:28;12.80;99.90
18613;DHT22;9436;52.152;21.032;2022-10-18T04:01:57;12.70;99.90
18613;DHT22;9436;52.152;21.032;2022-10-18T04:04:24;12.70;99.90
18613;DHT22;9436;52.152;21.032;2022-10-18T04:06:51;12.80;99.90
18613;DHT22;9436;52.152;21.032;2022-10-18T04:09:18;12.80;99.90
18613;DHT22;9436;52.152;21.032;2022-10-18T04:11:45;12.70;99.90
18613;DHT22;9436;52.152;21.032;2022-10-18T04:14:12;12.70;99.90
18613;DHT22;9436;52.152;21.032;2022-10-18T04:16:39;12.70;99.90
18613;DHT22;9436;52.152;21.032;2022-10-18T04:19:08;12.70;99.90
18613;DHT22;9436;52.152;21.032;2022-10-18T04:21:35;12.70;99.90
18613;DHT22;9436;52.152;21.032;2022-10-18T04:24:02;12.60;99.90
18613;DHT22;9436;52.152;21.032;2022-10-18T04:26:29;12.60;99.90
18613;DHT22;9436;52.152;21.032;2022-10-18T04:28:56;12.60;99.90
18613;DHT22;9436;52.152;21.032;2022-10-18T04:31:23;12.50;99.90
18613;DHT22;9436;52.152;21.032;2022-10-18T04:33:50;12.50;99.90
18613;DHT22;9436;52.152;21.032;2022-10-18T04:36:18;12.60;99.90
18613;DHT22;9436;52.152;21.032;2022-10-18T04:38:45;12.50;99.90
18613;DHT22;9436;52.152;21.032;2022-10-18T04:41:13;12.60;99.90
18613;DHT22;9436;52.152;21.032;2022-10-18T04:43:40;12.50;99.90
18613;DHT22;9436;52.152;21.032;2022-10-18T04:46:07;12.50;99.90
18613;DHT22;9436;52.152;21.032;2022-10-18T04:48:34;12.50;99.90
18613;DHT22;9436;52.152;21.032;2022-10-18T04:51:00;12.50;99.90
18613;DHT22;9436;52.152;21.032;2022-10-18T04:53:29;12.50;99.90
18613;DHT22;9436;52.152;21.032;2022-10-18T04:55:57;12.60;99.90
18613;DHT22;9436;52.152;21.032;2022-10-18T04:58:24;12.60;99.90
18613;DHT22;9436;52.152;21.032;2022-10-18T05:00:51;12.60;99.90
18613;DHT22;9436;52.152;21.032;2022-10-18T05:03:18;12.60;99.90
18613;DHT22;9436;52.152;21.032;2022-10-18T05:05:45;12.60;99.90
18613;DHT22;9436;52.152;21.032;2022-10-18T05:08:12;12.60;99.90
18613;DHT22;9436;52.152;21.032;2022-10-18T05:10:41;12.60;99.90
18613;DHT22;9436;52.152;21.032;2022-10-18T05:13:08;12.60;99.90
18613;DHT22;9436;52.152;21.032;2022-10-18T05:15:35;12.60;99.90
18613;DHT22;9436;52.152;21.032;2022-10-18T05:18:02;12.60;99.90
18613;DHT22;9436;52.152;21.032;2022-10-18T05:20:29;12.70;99.90
18613;DHT22;9436;52.152;21.032;2022-10-18T05:22:56;12.70;99.90
18613;DHT22;9436;52.152;21.032;2022-10-18T05:25:23;12.70;99.90
18613;DHT22;9436;52.152;21.032;2022-10-18T05:27:52;12.70;99.90
18613;DHT22;9436;52.152;21.032;2022-10-18T05:30:19;12.80;99.90
18613;DHT22;9436;52.152;21.032;2022-10-18T05:32:46;12.80;99.90
18613;DHT22;9436;52.152;21.032;2022-10-18T05:35:13;12.90;99.90
18613;DHT22;9436;52.152;21.032;2022-10-18T05:37:40;12.90;99.90
18613;DHT22;9436;52.152;21.032;2022-10-18T05:40:08;13.00;99.90
18613;DHT22;9436;52.152;21.032;2022-10-18T05:42:37;13.10;99.90
18613;DHT22;9436;52.152;21.032;2022-10-18T05:45:06;13.20;99.90
18613;DHT22;9436;52.152;21.032;2022-10-18T05:47:34;13.50;99.90
18613;DHT22;9436;52.152;21.032;2022-10-18T05:50:01;13.70;99.90
18613;DHT22;9436;52.152;21.032;2022-10-18T05:52:28;13.80;99.90
18613;DHT22;9436;52.152;21.032;2022-10-18T05:54:55;14.00;99.90
18613;DHT22;9436;52.152;21.032;2022-10-18T05:57:22;14.10;99.90
18613;DHT22;9436;52.152;21.032;2022-10-18T05:59:49;14.30;99.90
18613;DHT22;9436;52.152;21.032;2022-10-18T06:02:17;14.40;99.90
18613;DHT22;9436;52.152;21.032;2022-10-18T06:04:44;14.30;99.90
18613;DHT22;9436;52.152;21.032;2022-10-18T06:07:17;14.40;99.90
18613;DHT22;9436;52.152;21.032;2022-10-18T06:09:44;14.50;99.90
18613;DHT22;9436;52.152;21.032;2022-10-18T06:12:11;14.60;99.90
18613;DHT22;9436;52.152;21.032;2022-10-18T06:14:38;14.70;99.90
18613;DHT22;9436;52.152;21.032;2022-10-18T06:17:05;14.80;99.90
18613;DHT22;9436;52.152;21.032;2022-10-18T06:19:34;14.90;99.90
18613;DHT22;9436;52.152;21.032;2022-10-18T06:22:01;14.90;99.90
18613;DHT22;9436;52.152;21.032;2022-10-18T06:24:28;15.00;99.90
18613;DHT22;9436;52.152;21.032;2022-10-18T06:26:55;15.10;99.90
18613;DHT22;9436;52.152;21.032;2022-10-18T06:29:22;15.10;99.90
18613;DHT22;9436;52.152;21.032;2022-10-18T06:31:49;15.20;99.90
18613;DHT22;9436;52.152;21.032;2022-10-18T06:34:16;15.30;99.90
18613;DHT22;9436;52.152;21.032;2022-10-18T06:36:45;15.40;99.90
18613;DHT22;9436;52.152;21.032;2022-10-18T06:39:12;15.40;99.90
18613;DHT22;9436;52.152;21.032;2022-10-18T06:41:39;15.40;99.90
18613;DHT22;9436;52.152;21.032;2022-10-18T06:44:06;15.50;99.90
18613;DHT22;9436;52.152;21.032;2022-10-18T06:46:38;15.60;99.90
18613;DHT22;9436;52.152;21.032;2022-10-18T06:49:05;15.70;99.90
18613;DHT22;9436;52.152;21.032;2022-10-18T06:51:32;15.70;99.90
18613;DHT22;9436;52.152;21.032;2022-10-18T06:54:01;15.70;99.90
18613;DHT22;9436;52.152;21.032;2022-10-18T06:56:28;15.60;99.90
18613;DHT22;9436;52.152;21.032;2022-10-18T06:58:55;15.50;99.90
18613;DHT22;9436;52.152;21.032;2022-10-18T07:01:22;15.50;99.90
18613;DHT22;9436;52.152;21.032;2022-10-18T07:03:52;15.70;99.90
18613;DHT22;9436;52.152;21.032;2022-10-18T07:06:19;15.70;99.90
18613;DHT22;9436;52.152;21.032;2022-10-18T07:08:48;15.80;99.90
18613;DHT22;9436;52.152;21.032;2022-10-18T07:11:17;15.80;99.90
18613;DHT22;9436;52.152;21.032;2022-10-18T07:13:45;15.70;99.90
18613;DHT22;9436;52.152;21.032;2022-10-18T07:16:13;15.60;99.90
18613;DHT22;9436;52.152;21.032;2022-10-18T07:18:42;15.70;99.90
18613;DHT22;9436;52.152;21.032;2022-10-18T07:21:11;15.70;99.90
18613;DHT22;9436;52.152;21.032;2022-10-18T07:23:40;15.70;99.90
18613;DHT22;9436;52.152;21.032;2022-10-18T07:26:11;15.60;99.90
18613;DHT22;9436;52.152;21.032;2022-10-18T07:28:40;15.60;99.90
18613;DHT22;9436;52.152;21.032;2022-10-18T07:31:08;15.80;99.90
18613;DHT22;9436;52.152;21.032;2022-10-18T07:33:36;15.90;99.90
18613;DHT22;9436;52.152;21.032;2022-10-18T07:36:05;15.90;99.90
18613;DHT22;9436;52.152;21.032;2022-10-18T07:38:33;16.00;99.90
18613;DHT22;9436;52.152;21.032;2022-10-18T07:41:00;16.00;99.90
18613;DHT22;9436;52.152;21.032;2022-10-18T07:43:28;16.10;99.90
18613;DHT22;9436;52.152;21.032;2022-10-18T07:45:59;16.10;99.90
18613;DHT22;9436;52.152;21.032;2022-10-18T07:48:26;16.10;99.90
18613;DHT22;9436;52.152;21.032;2022-10-18T07:50:56;16.20;99.90
18613;DHT22;9436;52.152;21.032;2022-10-18T07:53:23;16.20;99.90
18613;DHT22;9436;52.152;21.032;2022-10-18T07:55:50;16.20;99.90
18613;DHT22;9436;52.152;21.032;2022-10-18T07:58:17;16.20;99.90
18613;DHT22;9436;52.152;21.032;2022-10-18T08:00:44;16.30;99.90
18613;DHT22;9436;52.152;21.032;2022-10-18T08:03:12;16.30;99.90
18613;DHT22;9436;52.152;21.032;2022-10-18T08:05:39;16.40;99.90
18613;DHT22;9436;52.152;21.032;2022-10-18T08:08:06;16.40;99.90
18613;DHT22;9436;52.152;21.032;2022-10-18T08:10:34;16.60;99.90
18613;DHT22;9436;52.152;21.032;2022-10-18T08:13:01;16.60;99.90
18613;DHT22;9436;52.152;21.032;2022-10-18T08:15:28;16.60;99.90
18613;DHT22;9436;52.152;21.032;2022-10-18T08:17:57;16.70;99.90
18613;DHT22;9436;52.152;21.032;2022-10-18T08:20:26;16.70;99.90
18613;DHT22;9436;52.152;21.032;2022-10-18T08:22:53;16.70;99.90
18613;DHT22;9436;52.152;21.032;2022-10-18T08:25:20;16.80;99.90
18613;DHT22;9436;52.152;21.032;2022-10-18T08:27:47;16.90;99.90
18613;DHT22;9436;52.152;21.032;2022-10-18T08:30:14;16.90;99.90
18613;DHT22;9436;52.152;21.032;2022-10-18T08:32:41;16.80;99.90
18613;DHT22;9436;52.152;21.032;2022-10-18T08:35:08;16.80;99.90
18613;DHT22;9436;52.152;21.032;2022-10-18T08:37:37;16.80;99.90
18613;DHT22;9436;52.152;21.032;2022-10-18T08:40:05;16.90;99.90
18613;DHT22;9436;52.152;21.032;2022-10-18T08:42:55;16.90;99.90
18613;DHT22;9436;52.152;21.032;2022-10-18T08:45:24;16.90;99.90
18613;DHT22;9436;52.152;21.032;2022-10-18T08:47:53;16.90;99.90
18613;DHT22;9436;52.152;21.032;2022-10-18T08:50:24;17.20;99.90
18613;DHT22;9436;52.152;21.032;2022-10-18T08:52:57;17.30;99.90
18613;DHT22;9436;52.152;21.032;2022-10-18T08:55:28;17.30;99.90
18613;DHT22;9436;52.152;21.032;2022-10-18T08:58:01;17.30;99.90
18613;DHT22;9436;52.152;21.032;2022-10-18T09:00:30;17.40;99.90
18613;DHT22;9436;52.152;21.032;2022-10-18T09:03:16;17.40;99.90
18613;DHT22;9436;52.152;21.032;2022-10-18T09:06:07;17.40;99.90
18613;DHT22;9436;52.152;21.032;2022-10-18T09:08:48;17.50;99.90
18613;DHT22;9436;52.152;21.032;2022-10-18T09:11:26;17.70;99.90
18613;DHT22;9436;52.152;21.032;2022-10-18T09:16:45;18.10;99.90
18613;DHT22;9436;52.152;21.032;2022-10-18T09:19:23;18.10;99.90
18613;DHT22;9436;52.152;21.032;2022-10-18T09:21:55;18.00;99.90
18613;DHT22;9436;52.152;21.032;2022-10-18T09:24:29;18.10;99.90
18613;DHT22;9436;52.152;21.032;2022-10-18T09:27:04;18.10;99.90
18613;DHT22;9436;52.152;21.032;2022-10-18T09:29:45;18.20;99.90
18613;DHT22;9436;52.152;21.032;2022-10-18T09:32:23;18.10;99.90
18613;DHT22;9436;52.152;21.032;2022-10-18T09:34:55;18.10;99.90
18613;DHT22;9436;52.152;21.032;2022-10-18T09:37:26;18.00;99.90
18613;DHT22;9436;52.152;21.032;2022-10-18T09:40:02;18.00;99.90
18613;DHT22;9436;52.152;21.032;2022-10-18T09:42:34;18.10;99.90
18613;DHT22;9436;52.152;21.032;2022-10-18T09:45:07;18.30;99.90
18613;DHT22;9436;52.152;21.032;2022-10-18T09:47:45;18.40;99.90
18613;DHT22;9436;52.152;21.032;2022-10-18T09:50:24;18.30;99.90
18613;DHT22;9436;52.152;21.032;2022-10-18T09:53:03;18.30;99.90
18613;DHT22;9436;52.152;21.032;2022-10-18T09:55:39;18.40;99.90
18613;DHT22;9436;52.152;21.032;2022-10-18T09:58:09;18.40;99.90
18613;DHT22;9436;52.152;21.032;2022-10-18T10:00:42;18.30;99.90
18613;DHT22;9436;52.152;21.032;2022-10-18T10:03:12;18.20;99.90
18613;DHT22;9436;52.152;21.032;2022-10-18T10:05:40;18.10;99.90
18613;DHT22;9436;52.152;21.032;2022-10-18T10:08:08;18.20;99.90
18613;DHT22;9436;52.152;21.032;2022-10-18T10:10:39;18.20;99.90
18613;DHT22;9436;52.152;21.032;2022-10-18T10:13:14;18.30;99.90
18613;DHT22;9436;52.152;21.032;2022-10-18T10:15:45;18.40;99.90
18613;DHT22;9436;52.152;21.032;2022-10-18T10:18:18;18.40;99.90
18613;DHT22;9436;52.152;21.032;2022-10-18T10:20:47;18.30;99.90
18613;DHT22;9436;52.152;21.032;2022-10-18T10:23:20;18.40;99.90
18613;DHT22;9436;52.152;21.032;2022-10-18T10:25:53;18.40;99.90
18613;DHT22;9436;52.152;21.032;2022-10-18T10:28:22;18.50;99.90
18613;DHT22;9436;52.152;21.032;2022-10-18T10:30:50;18.70;99.90
18613;DHT22;9436;52.152;21.032;2022-10-18T10:33:37;18.80;99.90
18613;DHT22;9436;52.152;21.032;2022-10-18T10:36:15;19.00;99.90
18613;DHT22;9436;52.152;21.032;2022-10-18T10:38:42;19.10;99.90
18613;DHT22;9436;52.152;21.032;2022-10-18T10:41:19;19.40;99.90
18613;DHT22;9436;52.152;21.032;2022-10-18T10:43:46;19.60;99.90
18613;DHT22;9436;52.152;21.032;2022-10-18T10:46:15;19.70;99.90
18613;DHT22;9436;52.152;21.032;2022-10-18T10:48:48;19.80;99.90
18613;DHT22;9436;52.152;21.032;2022-10-18T10:51:26;19.90;99.90
18613;DHT22;9436;52.152;21.032;2022-10-18T10:53:59;19.90;99.90
18613;DHT22;9436;52.152;21.032;2022-10-18T10:56:29;20.00;99.90
18613;DHT22;9436;52.152;21.032;2022-10-18T10:59:00;20.00;99.90
18613;DHT22;9436;52.152;21.032;2022-10-18T11:01:32;20.10;99.90
18613;DHT22;9436;52.152;21.032;2022-10-18T11:04:01;20.20;99.90
18613;DHT22;9436;52.152;21.032;2022-10-18T11:06:39;20.30;99.90
18613;DHT22;9436;52.152;21.032;2022-10-18T11:09:23;20.30;99.90
18613;DHT22;9436;52.152;21.032;2022-10-18T11:12:01;20.40;99.90
18613;DHT22;9436;52.152;21.032;2022-10-18T11:14:33;20.30;99.90
18613;DHT22;9436;52.152;21.032;2022-10-18T11:17:09;20.30;99.90
18613;DHT22;9436;52.152;21.032;2022-10-18T11:19:43;20.40;99.90
18613;DHT22;9436;52.152;21.032;2022-10-18T11:22:18;20.30;99.90
18613;DHT22;9436;52.152;21.032;2022-10-18T11:24:47;20.30;99.90
18613;DHT22;9436;52.152;21.032;2022-10-18T11:27:20;20.30;99.90
18613;DHT22;9436;52.152;21.032;2022-10-18T11:30:01;20.30;99.90
18613;DHT22;9436;52.152;21.032;2022-10-18T11:32:34;20.30;99.90
18613;DHT22;9436;52.152;21.032;2022-10-18T11:35:21;20.40;99.90
18613;DHT22;9436;52.152;21.032;2022-10-18T11:38:01;20.40;99.90
18613;DHT22;9436;52.152;21.032;2022-10-18T11:40:41;20.40;99.90
18613;DHT22;9436;52.152;21.032;2022-10-18T11:43:15;20.30;99.90
18613;DHT22;9436;52.152;21.032;2022-10-18T11:45:51;20.30;99.90
18613;DHT22;9436;52.152;21.032;2022-10-18T11:48:35;20.10;99.90
18613;DHT22;9436;52.152;21.032;2022-10-18T11:51:09;20.10;99.90
18613;DHT22;9436;52.152;21.032;2022-10-18T11:53:45;20.00;99.90
18613;DHT22;9436;52.152;21.032;2022-10-18T11:56:21;19.90;99.90
18613;DHT22;9436;52.152;21.032;2022-10-18T11:59:01;19.90;99.90
18613;DHT22;9436;52.152;21.032;2022-10-18T12:01:35;19.90;99.90
18613;DHT22;9436;52.152;21.032;2022-10-18T12:04:07;20.00;99.90
18613;DHT22;9436;52.152;21.032;2022-10-18T12:06:39;20.10;99.90
18613;DHT22;9436;52.152;21.032;2022-10-18T12:09:13;20.20;99.90
18613;DHT22;9436;52.152;21.032;2022-10-18T12:11:46;20.30;99.90
18613;DHT22;9436;52.152;21.032;2022-10-18T12:14:23;20.40;99.90
18613;DHT22;9436;52.152;21.032;2022-10-18T12:16:51;20.50;99.90
18613;DHT22;9436;52.152;21.032;2022-10-18T12:19:23;20.40;99.90
18613;DHT22;9436;52.152;21.032;2022-10-18T12:21:52;20.40;99.90
18613;DHT22;9436;52.152;21.032;2022-10-18T12:24:21;20.40;99.90
18613;DHT22;9436;52.152;21.032;2022-10-18T12:26:52;20.50;99.90
18613;DHT22;9436;52.152;21.032;2022-10-18T12:29:28;20.50;99.90
18613;DHT22;9436;52.152;21.032;2022-10-18T12:31:59;20.60;99.90
18613;DHT22;9436;52.152;21.032;2022-10-18T12:34:32;20.60;99.90
18613;DHT22;9436;52.152;21.032;2022-10-18T12:39:58;20.60;99.90
18613;DHT22;9436;52.152;21.032;2022-10-18T12:42:28;20.60;99.90
18613;DHT22;9436;52.152;21.032;2022-10-18T12:45:03;20.50;99.90
18613;DHT22;9436;52.152;21.032;2022-10-18T12:47:31;20.50;99.90
18613;DHT22;9436;52.152;21.032;2022-10-18T12:49:59;20.50;99.90
18613;DHT22;9436;52.152;21.032;2022-10-18T12:52:29;20.60;99.90
18613;DHT22;9436;52.152;21.032;2022-10-18T12:55:27;20.60;99.90
18613;DHT22;9436;52.152;21.032;2022-10-18T13:00:54;20.60;99.90
18613;DHT22;9436;52.152;21.032;2022-10-18T13:03:40;20.60;99.90
18613;DHT22;9436;52.152;21.032;2022-10-18T13:06:08;20.50;99.90
18613;DHT22;9436;52.152;21.032;2022-10-18T13:08:40;20.40;99.90
18613;DHT22;9436;52.152;21.032;2022-10-18T13:14:32;20.30;99.90
18613;DHT22;9436;52.152;21.032;2022-10-18T13:17:11;20.30;99.90
18613;DHT22;9436;52.152;21.032;2022-10-18T13:19:49;20.30;99.90
18613;DHT22;9436;52.152;21.032;2022-10-18T13:22:32;20.20;99.90
18613;DHT22;9436;52.152;21.032;2022-10-18T13:25:05;20.20;99.90
18613;DHT22;9436;52.152;21.032;2022-10-18T13:27:43;20.20;99.90
18613;DHT22;9436;52.152;21.032;2022-10-18T13:30:32;20.20;99.90
18613;DHT22;9436;52.152;21.032;2022-10-18T13:36:13;20.10;99.90
18613;DHT22;9436;52.152;21.032;2022-10-18T13:38:46;20.10;99.90
18613;DHT22;9436;52.152;21.032;2022-10-18T13:41:16;20.10;99.90
18613;DHT22;9436;52.152;21.032;2022-10-18T13:43:58;20.10;99.90
18613;DHT22;9436;52.152;21.032;2022-10-18T13:50:05;20.10;99.90
18613;DHT22;9436;52.152;21.032;2022-10-18T13:52:50;20.10;99.90
18613;DHT22;9436;52.152;21.032;2022-10-18T13:55:40;20.10;99.90
18613;DHT22;9436;52.152;21.032;2022-10-18T13:58:15;20.00;99.90
18613;DHT22;9436;52.152;21.032;2022-10-18T14:00:55;20.00;99.90
18613;DHT22;9436;52.152;21.032;2022-10-18T14:03:39;19.90;99.90
18613;DHT22;9436;52.152;21.032;2022-10-18T14:06:14;20.00;99.90
18613;DHT22;9436;52.152;21.032;2022-10-18T14:08:45;20.00;99.90
18613;DHT22;9436;52.152;21.032;2022-10-18T14:11:21;20.00;99.90
18613;DHT22;9436;52.152;21.032;2022-10-18T14:13:53;20.00;99.90
18613;DHT22;9436;52.152;21.032;2022-10-18T14:16:32;20.00;99.90
18613;DHT22;9436;52.152;21.032;2022-10-18T14:19:09;19.90;99.90
18613;DHT22;9436;52.152;21.032;2022-10-18T14:21:40;19.90;99.90
18613;DHT22;9436;52.152;21.032;2022-10-18T14:24:17;20.00;99.90
18613;DHT22;9436;52.152;21.032;2022-10-18T14:26:45;20.10;99.90
18613;DHT22;9436;52.152;21.032;2022-10-18T14:29:17;20.00;99.90
18613;DHT22;9436;52.152;21.032;2022-10-18T14:31:51;20.00;99.90
18613;DHT22;9436;52.152;21.032;2022-10-18T14:34:20;19.90;99.90
18613;DHT22;9436;52.152;21.032;2022-10-18T14:36:49;20.00;99.90
18613;DHT22;9436;52.152;21.032;2022-10-18T14:39:19;19.90;99.90
18613;DHT22;9436;52.152;21.032;2022-10-18T14:41:51;19.90;99.90
18613;DHT22;9436;52.152;21.032;2022-10-18T14:44:20;19.90;99.90
18613;DHT22;9436;52.152;21.032;2022-10-18T14:46:58;19.80;99.90
18613;DHT22;9436;52.152;21.032;2022-10-18T14:49:25;19.80;99.90
18613;DHT22;9436;52.152;21.032;2022-10-18T14:51:56;19.80;99.90
18613;DHT22;9436;52.152;21.032;2022-10-18T14:54:27;19.60;99.90
18613;DHT22;9436;52.152;21.032;2022-10-18T14:56:54;19.60;99.90
18613;DHT22;9436;52.152;21.032;2022-10-18T14:59:25;19.60;99.90
18613;DHT22;9436;52.152;21.032;2022-10-18T15:01:56;19.50;99.90
18613;DHT22;9436;52.152;21.032;2022-10-18T15:04:25;19.50;99.90
18613;DHT22;9436;52.152;21.032;2022-10-18T15:06:59;19.40;99.90
18613;DHT22;9436;52.152;21.032;2022-10-18T15:09:28;19.40;99.90
18613;DHT22;9436;52.152;21.032;2022-10-18T15:11:56;19.30;99.90
18613;DHT22;9436;52.152;21.032;2022-10-18T15:14:26;19.30;99.90
18613;DHT22;9436;52.152;21.032;2022-10-18T15:16:58;19.40;99.90
18613;DHT22;9436;52.152;21.032;2022-10-18T15:19:31;19.30;99.90
18613;DHT22;9436;52.152;21.032;2022-10-18T15:22:01;19.20;99.90
18613;DHT22;9436;52.152;21.032;2022-10-18T15:24:31;19.10;99.90
18613;DHT22;9436;52.152;21.032;2022-10-18T15:27:11;19.00;99.90
18613;DHT22;9436;52.152;21.032;2022-10-18T15:29:39;18.90;99.90
18613;DHT22;9436;52.152;21.032;2022-10-18T15:32:19;18.80;99.90
18613;DHT22;9436;52.152;21.032;2022-10-18T15:34:47;18.70;99.90
18613;DHT22;9436;52.152;21.032;2022-10-18T15:37:22;18.60;99.90
18613;DHT22;9436;52.152;21.032;2022-10-18T15:42:59;18.20;99.90
18613;DHT22;9436;52.152;21.032;2022-10-18T15:45:31;18.00;99.90
18613;DHT22;9436;52.152;21.032;2022-10-18T15:48:00;17.90;99.90
18613;DHT22;9436;52.152;21.032;2022-10-18T15:50:38;17.70;99.90
18613;DHT22;9436;52.152;21.032;2022-10-18T15:53:51;17.50;99.90
18613;DHT22;9436;52.152;21.032;2022-10-18T15:56:31;17.20;99.90
18613;DHT22;9436;52.152;21.032;2022-10-18T15:59:00;17.00;99.90
18613;DHT22;9436;52.152;21.032;2022-10-18T16:01:33;16.90;99.90
18613;DHT22;9436;52.152;21.032;2022-10-18T16:04:04;16.70;99.90
18613;DHT22;9436;52.152;21.032;2022-10-18T16:06:33;16.60;99.90
18613;DHT22;9436;52.152;21.032;2022-10-18T16:09:04;16.40;99.90
18613;DHT22;9436;52.152;21.032;2022-10-18T16:11:31;16.30;99.90
18613;DHT22;9436;52.152;21.032;2022-10-18T16:13:58;16.20;99.90
18613;DHT22;9436;52.152;21.032;2022-10-18T16:16:27;16.00;99.90
18613;DHT22;9436;52.152;21.032;2022-10-18T16:18:55;15.80;99.90
18613;DHT22;9436;52.152;21.032;2022-10-18T16:21:24;15.80;99.90
18613;DHT22;9436;52.152;21.032;2022-10-18T16:23:51;15.60;99.90
18613;DHT22;9436;52.152;21.032;2022-10-18T16:26:20;15.50;99.90